Time;durP1;ratioP1;P1;durP2;ratioP2;P2;SDS_P1;SDS_P2;PMS_P1;PMS_P2;Temp;Humidity;BMP_temperature;BMP_pressure;BME280_temperature;BME280_humidity;BME280_pressure;Samples;Min_cycle;Max_cycle;Signal;HPM_P1;HPM_P2
2021/05/11 00:01:50;;;;;;;8.27;5.45;;;15.80;72.90;;;;;;5073456;28;20103;-82
2021/05/11 00:04:18;;;;;;;8.70;5.70;;;15.80;72.90;;;;;;5057448;28;20037;-79
2021/05/11 00:06:44;;;;;;;8.23;5.20;;;15.80;72.80;;;;;;5057159;28;20048;-80
2021/05/11 00:09:10;;;;;;;9.98;6.68;;;15.80;72.80;;;;;;5056463;28;20048;-79
2021/05/11 00:11:36;;;;;;;8.82;6.07;;;15.80;72.80;;;;;;5040263;28;20041;-81
2021/05/11 00:14:05;;;;;;;7.93;6.82;;;15.80;72.80;;;;;;5058773;28;20052;-85
2021/05/11 00:16:31;;;;;;;8.65;7.00;;;15.70;72.80;;;;;;5060451;28;20060;-80
2021/05/11 00:18:57;;;;;;;11.52;7.55;;;15.80;72.80;;;;;;5061063;28;20049;-79
2021/05/11 00:21:24;;;;;;;9.45;6.78;;;15.70;72.90;;;;;;5060318;28;20043;-80
2021/05/11 00:23:50;;;;;;;8.45;7.32;;;15.70;72.80;;;;;;5061959;28;20223;-81
2021/05/11 00:26:15;;;;;;;10.10;7.57;;;15.70;72.90;;;;;;5059751;28;20045;-82
2021/05/11 00:28:41;;;;;;;11.93;7.55;;;15.70;72.90;;;;;;5061530;28;20041;-78
2021/05/11 00:31:07;;;;;;;8.38;7.50;;;15.70;73.00;;;;;;5060152;28;20139;-84
2021/05/11 00:33:33;;;;;;;8.85;7.88;;;15.70;73.00;;;;;;5061316;28;20083;-79
2021/05/11 00:35:59;;;;;;;12.75;8.45;;;15.70;73.00;;;;;;5043837;28;20478;-79
2021/05/11 00:38:25;;;;;;;9.77;8.43;;;15.60;73.10;;;;;;5061019;28;20548;-81
2021/05/11 00:40:51;;;;;;;9.57;7.75;;;15.60;73.30;;;;;;5043406;28;20136;-80
2021/05/11 00:43:17;;;;;;;10.70;8.00;;;15.60;73.40;;;;;;5059747;28;20485;-80
2021/05/11 00:45:43;;;;;;;9.82;7.85;;;15.60;73.60;;;;;;5076588;28;20049;-80
2021/05/11 00:48:09;;;;;;;8.77;7.90;;;15.60;73.80;;;;;;5043130;28;20045;-83
2021/05/11 00:50:35;;;;;;;11.05;8.23;;;15.60;74.00;;;;;;5060199;28;20048;-80
2021/05/11 00:53:00;;;;;;;10.75;8.30;;;15.50;74.20;;;;;;5060722;28;20045;-80
2021/05/11 00:55:27;;;;;;;9.13;8.23;;;15.50;74.30;;;;;;5058578;28;20102;-85
2021/05/11 00:57:53;;;;;;;9.10;7.43;;;15.50;74.50;;;;;;5057189;28;20094;-80
2021/05/11 01:00:20;;;;;;;10.57;9.32;;;15.50;74.70;;;;;;5057358;28;20068;-79
2021/05/11 01:02:45;;;;;;;9.43;8.38;;;15.50;74.80;;;;;;5056533;28;20059;-79
2021/05/11 01:05:12;;;;;;;10.73;9.15;;;15.50;74.90;;;;;;5057355;28;20041;-83
2021/05/11 01:07:37;;;;;;;10.13;8.98;;;15.50;75.00;;;;;;5057561;28;20277;-79
2021/05/11 01:10:04;;;;;;;11.30;8.88;;;15.50;75.10;;;;;;5056649;28;20044;-80
2021/05/11 01:12:30;;;;;;;9.20;8.25;;;15.40;75.80;;;;;;5039132;28;20098;-79
2021/05/11 01:14:55;;;;;;;10.82;8.60;;;15.50;75.30;;;;;;5056291;28;20041;-80
2021/05/11 01:17:30;;;;;;;9.18;8.15;;;15.40;75.30;;;;;;5057335;28;20052;-80
2021/05/11 01:20:01;;;;;;;13.27;9.20;;;15.40;75.40;;;;;;5056965;28;20061;-80
2021/05/11 01:25:32;;;;;;;13.95;9.32;;;15.40;75.50;;;;;;5059086;28;20067;-80
2021/05/11 01:47:31;;;;;;;10.55;9.25;;;15.30;76.00;;;;;;5019462;28;20052;-79
2021/05/11 01:57:55;;;;;;;11.43;10.20;;;15.20;76.70;;;;;;5059615;28;20045;-81
2021/05/11 02:25:23;;;;;;;8.32;7.40;;;15.10;78.30;;;;;;5017240;28;20064;-83
2021/05/11 02:27:49;;;;;;;9.13;7.70;;;15.10;78.40;;;;;;5049912;28;20052;-79
2021/05/11 02:30:15;;;;;;;10.35;7.97;;;15.10;78.50;;;;;;5058170;28;20037;-77
2021/05/11 02:32:41;;;;;;;10.25;7.28;;;15.10;78.70;;;;;;5057979;28;20067;-78
2021/05/11 02:35:11;;;;;;;8.63;6.93;;;15.10;78.70;;;;;;5059105;28;20072;-79
2021/05/11 02:37:36;;;;;;;9.30;5.88;;;15.10;78.90;;;;;;5057782;28;20103;-80
2021/05/11 02:40:04;;;;;;;7.45;6.35;;;15.10;79.10;;;;;;5058552;28;20057;-79
2021/05/11 02:42:30;;;;;;;9.45;6.05;;;15.00;79.10;;;;;;5057956;28;20047;-81
2021/05/11 02:44:57;;;;;;;7.00;5.65;;;15.00;79.10;;;;;;5059436;28;20044;-79
2021/05/11 02:47:22;;;;;;;6.80;4.90;;;15.00;79.30;;;;;;5058316;28;20470;-80
2021/05/11 02:49:50;;;;;;;8.63;5.10;;;15.00;79.30;;;;;;5059103;28;20045;-79
2021/05/11 02:52:16;;;;;;;7.75;4.55;;;15.00;79.40;;;;;;5058024;28;20036;-79
2021/05/11 02:54:42;;;;;;;5.47;4.15;;;15.00;79.30;;;;;;5057053;28;20528;-79
2021/05/11 02:57:08;;;;;;;5.25;4.10;;;15.00;79.20;;;;;;5057677;28;20126;-78
2021/05/11 02:59:34;;;;;;;4.95;3.65;;;15.00;79.30;;;;;;5057283;28;20075;-79
2021/05/11 03:02:00;;;;;;;5.72;4.13;;;15.00;79.20;;;;;;5074533;28;20051;-80
2021/05/11 03:04:26;;;;;;;5.47;3.72;;;15.00;79.30;;;;;;5057411;28;20422;-83
2021/05/11 03:06:56;;;;;;;5.80;3.90;;;14.90;79.20;;;;;;5057217;28;20096;-79
2021/05/11 03:09:23;;;;;;;6.20;3.30;;;14.90;79.30;;;;;;5057684;28;20047;-78
2021/05/11 03:11:49;;;;;;;4.47;3.47;;;14.90;79.40;;;;;;5041281;28;20500;-78
2021/05/11 03:14:15;;;;;;;5.53;3.58;;;14.90;79.50;;;;;;5074556;28;20045;-77
2021/05/11 03:16:41;;;;;;;6.47;4.00;;;14.90;79.50;;;;;;5060346;28;20048;-79
2021/05/11 03:19:07;;;;;;;5.35;3.13;;;14.90;79.60;;;;;;5041767;28;20044;-77
2021/05/11 03:21:32;;;;;;;6.60;4.07;;;14.90;79.70;;;;;;5059310;28;20067;-82
2021/05/11 03:23:58;;;;;;;6.28;4.07;;;14.90;79.70;;;;;;5041378;28;20051;-78
2021/05/11 03:26:24;;;;;;;4.85;3.55;;;14.80;79.50;;;;;;5075987;28;20112;-79
2021/05/11 03:28:50;;;;;;;4.80;3.55;;;14.80;79.50;;;;;;5059248;28;20370;-80
2021/05/11 03:31:15;;;;;;;5.65;3.70;;;14.80;79.50;;;;;;5058709;28;20064;-80
2021/05/11 03:33:41;;;;;;;5.55;3.53;;;14.80;79.50;;;;;;5060314;28;20049;-80
2021/05/11 03:36:07;;;;;;;5.85;3.97;;;14.80;79.50;;;;;;5076033;28;20064;-79
2021/05/11 03:38:33;;;;;;;6.15;3.47;;;14.70;79.50;;;;;;5060659;28;20047;-82
2021/05/11 03:40:59;;;;;;;6.53;2.95;;;14.70;79.50;;;;;;5058647;28;20067;-81
2021/05/11 03:43:28;;;;;;;5.45;3.38;;;14.70;79.50;;;;;;5042873;28;20045;-80
2021/05/11 03:46:00;;;;;;;5.75;3.05;;;14.70;79.60;;;;;;5060616;28;20098;-80
2021/05/11 03:48:26;;;;;;;6.03;3.22;;;14.70;79.70;;;;;;5058054;28;20060;-80
2021/05/11 03:50:52;;;;;;;6.03;3.05;;;14.60;79.70;;;;;;5058073;28;20049;-80
2021/05/11 03:53:18;;;;;;;7.28;3.17;;;14.60;79.70;;;;;;5058208;28;20053;-79
2021/05/11 03:55:44;;;;;;;5.50;3.20;;;14.60;79.70;;;;;;5058921;28;20044;-80
2021/05/11 03:58:09;;;;;;;5.10;2.30;;;14.60;79.80;;;;;;5057802;28;20075;-80
2021/05/11 04:00:35;;;;;;;3.78;2.60;;;14.60;79.70;;;;;;5041294;28;20116;-80
2021/05/11 04:03:02;;;;;;;5.68;2.72;;;14.60;79.70;;;;;;5057850;28;20477;-78
2021/05/11 04:05:27;;;;;;;5.75;2.60;;;14.60;79.70;;;;;;5056644;28;20125;-78
2021/05/11 04:07:57;;;;;;;6.07;2.58;;;14.50;79.80;;;;;;5057010;28;20045;-78
2021/05/11 04:18:44;;;;;;;5.90;2.70;;;14.40;80.00;;;;;;5058401;28;20064;-81
2021/05/11 04:21:10;;;;;;;4.68;2.50;;;14.50;80.10;;;;;;5059749;28;20053;-80
2021/05/11 04:23:37;;;;;;;3.70;2.20;;;14.50;80.10;;;;;;5059844;28;20052;-80
2021/05/11 04:26:03;;;;;;;4.57;2.33;;;14.40;80.10;;;;;;5058474;28;20579;-80
2021/05/11 04:28:28;;;;;;;3.33;2.20;;;14.40;80.10;;;;;;5058300;28;20115;-81
2021/05/11 04:30:54;;;;;;;3.88;2.42;;;14.40;80.10;;;;;;5058246;28;20045;-79
2021/05/11 04:33:20;;;;;;;3.58;2.00;;;14.40;80.20;;;;;;5058804;28;20091;-80
2021/05/11 04:35:46;;;;;;;3.00;2.40;;;14.40;80.20;;;;;;5041327;28;20417;-82
2021/05/11 04:38:12;;;;;;;4.13;2.58;;;14.40;80.30;;;;;;5058666;28;20052;-79
2021/05/11 04:40:38;;;;;;;4.07;2.90;;;14.40;80.30;;;;;;5024320;28;20064;-80
2021/05/11 04:43:05;;;;;;;4.35;3.00;;;14.40;80.40;;;;;;5057966;28;20489;-80
2021/05/11 04:45:33;;;;;;;5.35;3.05;;;14.40;80.50;;;;;;5059095;28;20045;-80
2021/05/11 04:47:59;;;;;;;4.38;3.25;;;14.40;80.60;;;;;;5057520;28;20056;-79
2021/05/11 04:50:27;;;;;;;7.07;3.70;;;14.30;80.50;;;;;;5042335;28;20048;-78
2021/05/11 04:52:53;;;;;;;4.57;3.45;;;14.30;80.60;;;;;;5058231;28;20045;-81
2021/05/11 04:55:19;;;;;;;5.80;3.80;;;14.30;80.80;;;;;;5058251;28;20055;-80
2021/05/11 04:57:46;;;;;;;5.20;3.53;;;14.30;80.80;;;;;;5058196;28;20095;-88
2021/05/11 05:00:13;;;;;;;5.85;3.45;;;14.30;80.90;;;;;;5061353;28;20040;-80
2021/05/11 05:02:42;;;;;;;4.63;3.92;;;14.30;80.90;;;;;;5062244;28;20048;-81
2021/05/11 05:05:09;;;;;;;5.40;3.42;;;14.30;81.00;;;;;;5061589;28;20076;-81
2021/05/11 05:07:35;;;;;;;5.25;3.33;;;14.30;81.00;;;;;;5061960;28;20041;-80
2021/05/11 05:10:02;;;;;;;4.90;3.78;;;14.30;81.00;;;;;;5061697;28;20152;-81
2021/05/11 05:12:28;;;;;;;6.30;3.30;;;14.30;81.00;;;;;;5045453;28;20057;-81
2021/05/11 05:14:53;;;;;;;4.38;3.25;;;14.30;81.00;;;;;;5061061;28;20071;-81
2021/05/11 05:17:19;;;;;;;4.93;3.33;;;14.30;81.00;;;;;;5078494;28;20041;-81
2021/05/11 05:19:45;;;;;;;5.90;3.15;;;14.30;80.90;;;;;;5061224;28;20037;-81
2021/05/11 05:22:11;;;;;;;5.70;3.20;;;14.30;80.90;;;;;;5060847;28;20057;-80
2021/05/11 05:24:43;;;;;;;3.80;3.03;;;14.30;81.00;;;;;;5061197;28;20067;-80
2021/05/11 05:27:26;;;;;;;3.72;3.08;;;14.30;81.10;;;;;;5062426;28;20376;-78
2021/05/11 05:29:52;;;;;;;4.50;3.20;;;14.30;81.20;;;;;;5061477;28;20106;-86
2021/05/11 05:32:18;;;;;;;4.25;3.22;;;14.30;81.20;;;;;;5061461;28;20044;-80
2021/05/11 05:34:44;;;;;;;5.25;3.47;;;14.30;81.10;;;;;;5045000;28;20041;-79
2021/05/11 05:37:10;;;;;;;4.80;3.42;;;14.30;81.10;;;;;;5061109;28;20164;-79
2021/05/11 05:42:03;;;;;;;4.60;3.92;;;14.40;81.20;;;;;;5060762;28;20071;-82
2021/05/11 05:44:30;;;;;;;6.10;3.78;;;14.40;81.20;;;;;;5061011;28;20503;-79
2021/05/11 05:46:55;;;;;;;5.32;3.22;;;14.40;81.20;;;;;;5063184;28;20037;-87
2021/05/11 05:49:23;;;;;;;4.90;3.40;;;14.40;81.20;;;;;;5044983;28;20053;-80
2021/05/11 05:51:50;;;;;;;5.22;3.75;;;14.40;81.20;;;;;;5060858;28;20068;-79
2021/05/11 05:54:16;;;;;;;5.07;3.67;;;14.40;81.10;;;;;;5044175;28;20093;-79
2021/05/11 05:56:45;;;;;;;5.05;3.53;;;14.50;81.20;;;;;;5060511;28;20122;-80
2021/05/11 05:59:11;;;;;;;4.43;3.28;;;14.50;81.20;;;;;;5060236;28;20045;-81
2021/05/11 06:01:40;;;;;;;4.63;3.22;;;14.40;81.20;;;;;;5060590;28;20104;-78
2021/05/11 06:04:14;;;;;;;5.28;3.35;;;14.50;81.20;;;;;;5061393;28;20049;-79
2021/05/11 06:07:00;;;;;;;4.75;3.15;;;14.50;81.30;;;;;;5044028;28;20072;-80
2021/05/11 06:09:26;;;;;;;4.18;2.85;;;14.50;81.30;;;;;;5043478;28;20492;-83
2021/05/11 06:17:13;;;;;;;4.07;3.45;;;14.50;81.10;;;;;;5054766;28;20143;-80
2021/05/11 06:19:43;;;;;;;4.97;3.42;;;14.60;81.10;;;;;;5060972;28;20064;-80
2021/05/11 06:22:09;;;;;;;4.93;3.10;;;14.50;81.10;;;;;;5060046;28;20041;-80
2021/05/11 06:24:35;;;;;;;4.22;3.33;;;14.50;81.00;;;;;;5060250;28;20539;-80
2021/05/11 06:27:01;;;;;;;5.97;4.22;;;14.50;81.00;;;;;;5060892;28;20044;-84
2021/05/11 06:29:29;;;;;;;4.47;3.25;;;14.60;81.10;;;;;;5060260;28;20052;-81
2021/05/11 06:31:54;;;;;;;5.95;3.70;;;14.60;81.00;;;;;;5060986;28;20051;-80
2021/05/11 06:34:20;;;;;;;5.35;3.75;;;14.60;80.90;;;;;;5059851;28;20527;-80
2021/05/11 06:36:48;;;;;;;4.70;3.28;;;14.60;80.90;;;;;;5076287;28;20044;-79
2021/05/11 06:39:15;;;;;;;5.60;3.45;;;14.70;80.90;;;;;;5053565;28;20037;-79
2021/05/11 06:41:46;;;;;;;4.38;3.10;;;14.70;80.90;;;;;;5053063;28;20084;-79
2021/05/11 06:54:35;;;;;;;6.35;3.72;;;14.80;80.70;;;;;;5059424;28;20195;-79
2021/05/11 06:57:01;;;;;;;4.97;4.25;;;14.90;80.60;;;;;;5042695;28;20152;-80
2021/05/11 06:59:29;;;;;;;5.63;3.65;;;14.90;80.40;;;;;;5042750;28;20068;-80
2021/05/11 07:01:54;;;;;;;4.43;3.88;;;14.90;80.30;;;;;;5059409;28;20044;-78
2021/05/11 07:04:20;;;;;;;3.80;2.75;;;15.00;80.20;;;;;;5059367;28;20388;-75
2021/05/11 07:06:46;;;;;;;6.10;3.67;;;15.10;80.00;;;;;;5038119;28;20059;-78
2021/05/11 07:09:16;;;;;;;6.70;3.70;;;15.30;79.60;;;;;;5058574;28;20143;-77
2021/05/11 07:14:08;;;;;;;4.70;3.40;;;15.40;78.60;;;;;;5057832;28;20045;-80
2021/05/11 07:16:34;;;;;;;4.70;4.07;;;15.40;78.60;;;;;;5040059;28;20037;-77
2021/05/11 07:18:59;;;;;;;5.30;3.55;;;15.40;78.60;;;;;;5060839;28;20397;-80
2021/05/11 07:21:25;;;;;;;5.72;3.97;;;15.40;78.60;;;;;;5059457;28;20124;-81
2021/05/11 07:23:51;;;;;;;4.22;3.83;;;15.40;78.70;;;;;;5058783;28;20037;-79
2021/05/11 07:29:00;;;;;;;4.75;3.75;;;15.40;78.60;;;;;;5041112;28;20044;-82
2021/05/11 07:31:26;;;;;;;4.80;4.15;;;15.40;78.60;;;;;;5043967;28;20057;-81
2021/05/11 07:33:55;;;;;;;4.43;3.78;;;15.40;78.80;;;;;;5055649;28;20099;-80
2021/05/11 07:36:21;;;;;;;6.80;5.80;;;15.40;78.80;;;;;;5058178;28;20060;-78
2021/05/11 07:38:47;;;;;;;6.75;5.22;;;15.40;79.00;;;;;;5053240;28;20045;-78
2021/05/11 07:41:14;;;;;;;7.95;5.65;;;15.50;79.10;;;;;;5033003;28;20076;-81
2021/05/11 07:43:41;;;;;;;5.72;4.82;;;15.50;79.10;;;;;;5052304;28;20041;-80
2021/05/11 07:49:16;;;;;;;;;;;15.60;78.80;;;;;;5033890;28;20123;-80
2021/05/11 08:03:07;;;;;;;5.70;3.40;;;16.00;78.80;;;;;;5041169;28;20037;-81
2021/05/11 08:10:49;;;;;;;5.15;3.70;;;16.40;77.40;;;;;;5043721;28;20060;-79
2021/05/11 08:16:07;;;;;;;6.85;4.28;;;16.60;77.10;;;;;;5040912;28;20033;-76
2021/05/11 08:19:00;;;;;;;5.55;4.75;;;16.60;77.00;;;;;;5040141;28;20232;-78
2021/05/11 08:29:42;;;;;;;5.35;4.05;;;17.00;76.50;;;;;;5045275;28;20042;-77
2021/05/11 08:32:08;;;;;;;5.65;4.28;;;17.00;76.20;;;;;;5045727;28;20123;-75
2021/05/11 08:34:33;;;;;;;6.03;4.40;;;17.10;76.10;;;;;;5052987;28;20036;-76
2021/05/11 08:36:59;;;;;;;5.80;4.25;;;17.10;76.00;;;;;;5046228;28;20140;-77
2021/05/11 08:39:25;;;;;;;4.75;4.00;;;17.10;75.80;;;;;;5019755;28;20101;-80
2021/05/11 08:41:54;;;;;;;5.50;4.07;;;17.10;75.80;;;;;;5034365;28;20087;-80
2021/05/11 08:44:22;;;;;;;4.93;4.43;;;17.20;75.70;;;;;;5056531;28;20528;-83
2021/05/11 08:46:48;;;;;;;5.18;4.10;;;17.20;75.70;;;;;;5038850;28;20140;-79
2021/05/11 08:49:17;;;;;;;4.93;4.32;;;17.30;75.60;;;;;;5023308;28;20616;-80
2021/05/11 08:52:05;;;;;;;4.57;3.33;;;17.30;75.60;;;;;;5019210;28;20037;-81
2021/05/11 08:55:04;;;;;;;6.18;4.13;;;17.40;75.70;;;;;;5040516;28;20053;-79
2021/05/11 09:09:04;;;;;;;5.50;4.13;;;17.50;75.00;;;;;;5036500;28;20095;-80
2021/05/11 09:26:00;;;;;;;5.32;4.03;;;17.80;74.30;;;;;;5055785;28;20032;-80
2021/05/11 09:28:52;;;;;;;5.07;3.47;;;17.80;74.20;;;;;;5015972;28;20143;-86
2021/05/11 09:31:42;;;;;;;4.57;4.00;;;17.90;74.20;;;;;;5051108;28;20057;-80
2021/05/11 09:34:24;;;;;;;6.05;3.70;;;18.00;74.10;;;;;;5033452;28;20140;-79
2021/05/11 10:32:45;;;;;;;3.78;2.00;;;19.40;68.90;;;;;;5058813;28;20108;-81
2021/05/11 10:41:07;;;;;;;2.90;1.70;;;19.50;68.30;;;;;;5004932;28;20049;-79
2021/05/11 10:46:43;;;;;;;3.40;1.60;;;19.50;67.00;;;;;;5044203;28;20072;-79
2021/05/11 10:49:44;;;;;;;1.75;1.50;;;19.50;67.40;;;;;;5059835;28;20060;-78
2021/05/11 10:52:19;;;;;;;3.70;1.37;;;19.50;66.30;;;;;;4966510;28;20065;-76
2021/05/11 10:54:51;;;;;;;2.97;1.70;;;19.50;67.10;;;;;;5047149;28;20048;-79
2021/05/11 10:57:34;;;;;;;2.80;1.30;;;19.50;66.70;;;;;;5058581;28;20052;-77
2021/05/11 11:00:26;;;;;;;3.38;1.83;;;19.60;66.40;;;;;;5057709;28;20067;-76
2021/05/11 11:03:18;;;;;;;3.45;1.45;;;19.70;66.50;;;;;;5056045;28;20111;-82
2021/05/11 11:05:45;;;;;;;2.80;1.53;;;19.80;66.40;;;;;;5042356;28;20037;-73
2021/05/11 11:08:43;;;;;;;3.67;1.40;;;19.90;66.40;;;;;;5059881;28;20287;-80
2021/05/11 11:11:11;;;;;;;2.95;1.75;;;20.00;65.70;;;;;;4997206;28;20113;-79
2021/05/11 11:13:45;;;;;;;1.83;1.27;;;20.00;66.00;;;;;;5057865;28;20052;-71
2021/05/11 11:16:11;;;;;;;3.53;1.77;;;20.10;65.80;;;;;;5058911;28;20056;-77
2021/05/11 11:18:37;;;;;;;4.18;2.17;;;20.10;65.50;;;;;;5040941;28;20053;-80
2021/05/11 11:21:46;;;;;;;2.42;1.50;;;20.10;64.90;;;;;;5054048;28;20128;-74
2021/05/11 11:24:12;;;;;;;2.10;1.40;;;20.10;64.10;;;;;;5044561;28;20103;-74
2021/05/11 11:26:48;;;;;;;5.65;1.70;;;20.10;64.80;;;;;;5035930;28;20461;-73
2021/05/11 11:29:14;;;;;;;3.15;1.70;;;20.10;64.70;;;;;;5050848;28;20040;-73
2021/05/11 11:31:44;;;;;;;4.05;1.88;;;20.10;64.80;;;;;;5069741;28;20083;-74
2021/05/11 11:34:28;;;;;;;4.15;1.80;;;20.20;65.70;;;;;;5052660;28;20048;-74
2021/05/11 11:36:59;;;;;;;4.03;1.80;;;20.20;64.60;;;;;;5051847;28;20037;-74
2021/05/11 11:39:45;;;;;;;3.65;1.70;;;20.20;64.80;;;;;;5053563;28;20048;-73
2021/05/11 11:42:24;;;;;;;5.13;1.77;;;20.20;64.20;;;;;;5051692;28;20351;-73
2021/05/11 11:44:59;;;;;;;2.60;1.60;;;20.10;64.20;;;;;;5039700;28;20088;-77
2021/05/11 11:47:25;;;;;;;3.13;1.70;;;20.10;64.40;;;;;;5025951;28;20053;-77
2021/05/11 11:50:00;;;;;;;3.58;1.50;;;20.00;64.50;;;;;;5058210;28;20049;-79
2021/05/11 11:57:54;;;;;;;3.97;1.65;;;20.00;64.70;;;;;;5054545;28;20052;-72
2021/05/11 12:00:36;;;;;;;3.33;2.03;;;20.00;65.20;;;;;;5042040;28;20052;-74
2021/05/11 12:03:09;;;;;;;3.58;2.13;;;20.10;65.10;;;;;;5057926;28;20044;-77
2021/05/11 12:05:38;;;;;;;4.38;2.00;;;20.20;64.90;;;;;;5056776;28;20041;-76
2021/05/11 12:10:54;;;;;;;3.30;2.20;;;20.20;64.40;;;;;;5036678;28;20057;-77
2021/05/11 12:13:24;;;;;;;4.15;2.38;;;20.10;63.60;;;;;;5033680;28;20063;-78
2021/05/11 12:16:12;;;;;;;2.45;2.22;;;20.00;63.90;;;;;;5057445;28;20049;-82
2021/05/11 12:19:01;;;;;;;3.85;2.05;;;19.90;63.30;;;;;;5073744;28;20041;-77
2021/05/11 12:21:30;;;;;;;3.47;1.92;;;19.80;63.80;;;;;;5056033;28;20102;-77
2021/05/11 12:24:11;;;;;;;3.30;2.63;;;19.80;64.30;;;;;;5057184;28;20045;-77
2021/05/11 12:26:38;;;;;;;3.38;2.20;;;19.70;63.50;;;;;;5057560;28;20044;-75
2021/05/11 12:29:10;;;;;;;4.03;1.85;;;19.70;64.20;;;;;;5052844;28;20041;-77
2021/05/11 12:31:40;;;;;;;;;;;19.70;64.70;;;;;;5030725;28;20058;-80
2021/05/11 12:34:07;;;;;;;3.90;2.05;;;19.60;64.00;;;;;;5050719;28;19921;-78
2021/05/11 12:36:44;;;;;;;2.67;2.10;;;19.60;65.10;;;;;;5035248;28;20394;-79
2021/05/11 12:40:08;;;;;;;2.80;2.45;;;19.70;64.90;;;;;;5038041;28;20045;-79
2021/05/11 12:42:23;;;;;;;2.88;2.22;;;19.60;64.80;;;;;;5027385;28;20053;-79
2021/05/11 12:45:14;;;;;;;3.60;2.22;;;19.60;64.90;;;;;;5020689;28;20045;-74
2021/05/11 12:47:47;;;;;;;3.88;2.70;;;19.60;64.90;;;;;;5036349;28;20093;-75
2021/05/11 12:50:14;;;;;;;4.43;2.58;;;19.50;65.10;;;;;;5020897;28;20133;-77
2021/05/11 12:52:45;;;;;;;4.10;3.03;;;19.50;65.40;;;;;;5027583;28;20412;-77
2021/05/11 12:55:31;;;;;;;3.15;2.30;;;19.40;65.40;;;;;;5040803;28;20105;-75
2021/05/11 12:58:09;;;;;;;4.28;2.47;;;19.50;65.50;;;;;;5049797;28;20113;-83
2021/05/11 13:00:47;;;;;;;3.08;2.42;;;19.40;65.60;;;;;;5056029;28;20041;-81
2021/05/11 13:03:38;;;;;;;2.88;2.58;;;19.40;65.70;;;;;;5041618;28;20040;-79
2021/05/11 13:17:07;;;;;;;5.20;4.35;;;19.80;66.60;;;;;;5052495;28;20112;-84
2021/05/11 13:26:06;;;;;;;4.50;4.00;;;19.50;65.50;;;;;;5290046;22;20191;-78
2021/05/11 13:28:40;;;;;;;4.22;3.85;;;19.40;66.20;;;;;;5010955;28;20052;-77
2021/05/11 13:36:25;;;;;;;4.32;3.90;;;19.20;66.60;;;;;;5025405;28;20045;-76
2021/05/11 13:38:52;;;;;;;6.43;3.90;;;19.20;66.90;;;;;;5008091;28;20055;-81
2021/05/11 13:41:18;;;;;;;5.60;3.30;;;19.10;66.90;;;;;;5023713;28;20486;-78
2021/05/11 13:43:44;;;;;;;4.32;2.70;;;19.00;67.00;;;;;;5023939;28;20053;-77
2021/05/11 13:46:10;;;;;;;4.10;3.20;;;19.00;67.10;;;;;;5023555;28;20045;-75
2021/05/11 13:48:38;;;;;;;3.72;2.97;;;19.00;67.10;;;;;;5007008;28;20113;-77
2021/05/11 13:51:14;;;;;;;3.47;2.78;;;18.80;67.10;;;;;;5024231;28;20067;-75
2021/05/11 13:53:43;;;;;;;2.40;2.20;;;18.90;67.30;;;;;;5032935;28;20102;-78
2021/05/11 14:03:58;;;;;;;3.85;3.20;;;18.90;67.40;;;;;;5033924;28;20473;-81
2021/05/11 14:06:23;;;;;;;4.55;3.45;;;18.90;67.50;;;;;;5030985;28;20045;-79
2021/05/11 14:08:49;;;;;;;4.00;3.30;;;18.80;67.60;;;;;;5026797;28;20048;-80
2021/05/11 14:11:15;;;;;;;3.38;2.88;;;18.80;68.00;;;;;;5027021;28;20378;-77
2021/05/11 14:13:41;;;;;;;5.72;3.15;;;18.70;68.20;;;;;;5042472;28;20151;-75
2021/05/11 14:16:07;;;;;;;5.00;3.50;;;18.70;68.30;;;;;;5025099;28;20041;-74
2021/05/11 14:18:33;;;;;;;4.38;3.83;;;18.60;68.60;;;;;;5040870;28;20049;-74
2021/05/11 14:20:58;;;;;;;4.18;3.50;;;18.50;69.00;;;;;;5025163;28;20052;-74
2021/05/11 14:23:25;;;;;;;3.15;2.70;;;18.40;69.60;;;;;;5024404;28;20049;-76
2021/05/11 14:25:51;;;;;;;3.58;1.95;;;18.30;69.90;;;;;;5039839;28;20060;-77
2021/05/11 14:28:17;;;;;;;2.40;1.70;;;18.30;70.40;;;;;;5042404;28;20036;-76
2021/05/11 14:30:42;;;;;;;1.80;1.55;;;18.20;70.70;;;;;;5041078;28;20104;-76
2021/05/11 14:33:08;;;;;;;2.53;1.90;;;18.10;71.20;;;;;;5059297;28;20045;-74
2021/05/11 14:35:36;;;;;;;1.90;1.67;;;18.00;71.40;;;;;;5040372;28;20062;-76
2021/05/11 14:38:02;;;;;;;2.33;1.33;;;17.90;71.70;;;;;;5041580;28;20045;-77
2021/05/11 14:40:28;;;;;;;2.83;1.80;;;17.90;71.90;;;;;;5024675;28;20037;-78
2021/05/11 14:42:54;;;;;;;3.28;1.73;;;17.80;72.10;;;;;;5041501;28;20056;-77
2021/05/11 14:45:23;;;;;;;3.33;1.83;;;17.70;72.70;;;;;;5059139;28;20405;-79
2021/05/11 14:47:49;;;;;;;2.15;1.75;;;17.60;72.90;;;;;;5026698;28;20049;-78
2021/05/11 14:50:16;;;;;;;2.25;1.85;;;17.70;72.80;;;;;;5026954;28;20061;-79
2021/05/11 14:52:42;;;;;;;3.40;2.13;;;17.70;72.80;;;;;;5026295;28;20455;-79
2021/05/11 14:55:13;;;;;;;2.60;1.77;;;17.60;72.70;;;;;;5010601;28;20456;-72
2021/05/11 14:57:39;;;;;;;3.17;1.75;;;17.60;72.90;;;;;;5040810;28;20037;-73
2021/05/11 15:00:09;;;;;;;4.47;1.90;;;17.60;72.80;;;;;;5041493;28;20036;-77
2021/05/11 15:02:35;;;;;;;4.07;2.30;;;17.70;72.60;;;;;;5041782;28;20065;-74
2021/05/11 15:05:03;;;;;;;4.07;1.73;;;17.80;72.40;;;;;;5041924;28;20469;-79
2021/05/11 15:07:29;;;;;;;3.33;1.92;;;17.70;72.30;;;;;;5019358;28;20041;-78
2021/05/11 15:09:55;;;;;;;4.05;1.73;;;17.70;72.40;;;;;;5025768;28;20178;-76
2021/05/11 15:12:24;;;;;;;1.83;1.63;;;17.80;72.30;;;;;;5025137;28;20057;-77
2021/05/11 15:14:57;;;;;;;5.32;1.67;;;17.80;72.10;;;;;;5059680;28;20052;-73
2021/05/11 15:19:53;;;;;;;2.40;1.98;;;18.00;71.80;;;;;;5022320;28;20077;-76
2021/05/11 15:22:20;;;;;;;2.90;2.45;;;18.00;71.80;;;;;;4994398;28;20054;-76
2021/05/11 15:24:46;;;;;;;4.22;2.40;;;17.90;72.10;;;;;;5012306;28;20512;-75
2021/05/11 15:27:12;;;;;;;2.88;2.20;;;17.80;72.30;;;;;;5013291;28;20414;-78
2021/05/11 15:29:38;;;;;;;3.15;2.20;;;17.80;72.20;;;;;;5011603;28;20118;-77
2021/05/11 15:32:55;;;;;;;3.35;2.00;;;17.90;72.30;;;;;;5034661;28;20136;-77
2021/05/11 15:35:32;;;;;;;3.78;2.13;;;17.90;72.40;;;;;;5000279;28;20103;-78
2021/05/11 15:37:59;;;;;;;2.47;2.25;;;18.00;72.10;;;;;;5021612;28;20038;-77
2021/05/11 15:40:33;;;;;;;5.70;2.75;;;18.00;71.80;;;;;;5024202;28;20056;-75
2021/05/11 15:42:59;;;;;;;3.33;2.70;;;18.00;71.70;;;;;;5023228;28;20045;-78
2021/05/11 15:45:25;;;;;;;3.58;2.63;;;17.90;72.00;;;;;;5020436;28;20044;-79
2021/05/11 15:47:56;;;;;;;4.70;3.00;;;17.80;72.30;;;;;;5018599;28;20033;-76
2021/05/11 15:50:26;;;;;;;4.25;3.30;;;17.60;72.70;;;;;;5025501;28;20062;-79
2021/05/11 15:52:56;;;;;;;6.28;2.75;;;17.50;73.10;;;;;;5041143;28;20512;-78
2021/05/11 15:55:24;;;;;;;3.70;2.72;;;17.50;73.50;;;;;;5025303;28;20041;-78
2021/05/11 15:57:51;;;;;;;4.25;2.75;;;17.50;73.60;;;;;;5025247;28;20106;-81
2021/05/11 16:00:17;;;;;;;4.38;2.90;;;17.50;73.60;;;;;;5041888;28;20049;-81
2021/05/11 16:02:46;;;;;;;4.05;2.80;;;17.50;73.60;;;;;;5041576;28;20055;-84
2021/05/11 16:05:12;;;;;;;4.85;2.83;;;17.40;73.70;;;;;;5025766;28;20124;-84
2021/05/11 16:07:38;;;;;;;3.45;3.15;;;17.40;73.90;;;;;;5041308;28;20071;-78
2021/05/11 16:10:08;;;;;;;3.63;3.00;;;17.30;74.10;;;;;;5041905;28;20049;-82
2021/05/11 16:12:34;;;;;;;4.80;3.10;;;17.30;74.40;;;;;;5025463;28;20122;-81
2021/05/11 16:15:01;;;;;;;4.18;3.28;;;17.20;74.70;;;;;;5021543;28;20049;-80
2021/05/11 16:17:27;;;;;;;3.38;2.67;;;17.20;75.10;;;;;;5021893;28;20056;-79
2021/05/11 16:19:53;;;;;;;4.45;2.85;;;17.20;75.40;;;;;;5032510;28;20037;-79
2021/05/11 16:22:19;;;;;;;3.67;2.83;;;17.30;75.70;;;;;;5038158;28;20049;-82
2021/05/11 16:24:44;;;;;;;6.38;2.85;;;17.30;75.00;;;;;;5058200;28;20147;-80
2021/05/11 16:27:10;;;;;;;10.88;8.98;;;17.30;75.20;;;;;;5059091;28;20489;-79
2021/05/11 16:29:36;;;;;;;8.30;5.25;;;17.40;75.80;;;;;;5025131;28;20049;-84
2021/05/11 16:32:04;;;;;;;16.45;13.68;;;17.40;75.10;;;;;;5025225;28;20041;-75
2021/05/11 16:34:31;;;;;;;15.73;14.20;;;17.50;75.20;;;;;;5036987;28;20060;-75
2021/05/11 16:37:01;;;;;;;17.35;12.70;;;17.60;75.50;;;;;;5020017;28;20049;-82
2021/05/11 16:39:28;;;;;;;15.15;11.32;;;17.70;76.00;;;;;;5005794;28;20120;-76
2021/05/11 16:41:54;;;;;;;8.10;6.03;;;17.80;75.80;;;;;;5005428;28;20045;-80
2021/05/11 16:44:20;;;;;;;8.82;4.78;;;17.90;74.80;;;;;;5005860;28;20487;-78
2021/05/11 16:46:46;;;;;;;9.65;7.55;;;17.90;74.10;;;;;;5020425;28;20044;-78
2021/05/11 16:49:12;;;;;;;12.32;6.38;;;17.90;74.30;;;;;;5021181;28;20068;-77
2021/05/11 16:51:40;;;;;;;11.77;7.53;;;17.90;74.30;;;;;;5004848;28;20046;-80
2021/05/11 16:54:06;;;;;;;10.65;5.80;;;18.00;74.40;;;;;;5021254;28;20087;-77
2021/05/11 16:56:32;;;;;;;7.82;5.10;;;18.00;74.30;;;;;;5008985;28;20041;-78
2021/05/11 16:58:58;;;;;;;8.13;5.00;;;18.00;74.10;;;;;;5036598;28;20116;-77
2021/05/11 17:01:24;;;;;;;9.80;4.80;;;17.90;73.90;;;;;;5028926;28;20045;-75
2021/05/11 17:03:50;;;;;;;47.22;11.23;;;17.90;73.80;;;;;;5014462;28;20474;-74
2021/05/11 17:06:18;;;;;;;42.85;12.50;;;17.90;73.90;;;;;;5022621;28;20049;-76